Etusivu
METAR-TAF:

METAR-TAF

Lentoasemat :

Yao, Japani

Leveyspiiri: 34-36N, Pituuspiiri: 135-36E, korkeus merenpinnasta: 10 m

Tämänhetkinen sää

Tämä raportti tehtiin 47 minuuttia sitten, kello 00.00 UTC
Tuuli 4 kn lounaasta, vaihdellen etelän/kaakon ja lännen/luoteen välillä
Lämpötila 13°C
Kosteus 88%
Ilmanpaine 1016 hPa
Näkyvyys: 5000 m
Muutamia pilviä 1000 ft:n korkeudessa
Hajanaisia pilviä 3500 ft:n korkeudessa
Hajonneita pilviä 6000 ft:n korkeudessa
utua

METAR: RJOY 200000Z 22004KT 160V300 5000 BR FEW010 SCT035 BKN060 13/11 Q1016

Aika: 09:47 (00:47 UTC)


TAF: puuttuu

Säähavainnot ja -ennusteet yli 4000 lentoasemalta (METAR- ja TAF-raportit).

Käytössä olevat sääasemat on merkitty karttaan keltaisilla ja punaisilla pisteillä.

Aseta hiiri pisteen päälle nähdäksesi sääaseman nimen.

Klikkaa sitten nähdäksesi säähavainnot ja -ennusteet.

Kartan vaihtaminen: klikkaa mustalla rastilla varustettuja vihreitä pisteitä, niin voit zoomata sisään; viivalla varustettua vihreää pistettä, niin voit zoomata ulos tai vihreitä nuolia, niin pääset viereisille kartoille.


METAR-TAF: